createdAt,value
2023-03-12T00:01:24.248Z,0.20
2023-03-12T00:03:51.416Z,0.20
2023-03-12T00:06:19.020Z,0.20
2023-03-12T00:08:45.733Z,0.20
2023-03-12T00:11:15.667Z,0.30
2023-03-12T00:13:43.212Z,0.47
2023-03-12T00:16:15.724Z,0.30
2023-03-12T00:18:43.200Z,0.20
2023-03-12T00:21:10.808Z,0.17
2023-03-12T00:23:37.553Z,0.20
2023-03-12T00:26:07.322Z,0.30
2023-03-12T00:28:35.052Z,0.17
2023-03-12T00:31:03.317Z,0.40
2023-03-12T00:33:30.152Z,0.28
2023-03-12T00:36:00.278Z,0.40
2023-03-12T00:38:26.966Z,0.20
2023-03-12T00:40:53.653Z,0.50
2023-03-12T00:43:20.454Z,0.90
2023-03-12T00:45:47.123Z,1.38
2023-03-12T00:48:13.827Z,3.30
2023-03-12T00:50:40.711Z,3.00
2023-03-12T00:53:07.594Z,3.17
2023-03-12T00:55:34.286Z,3.33
2023-03-12T00:58:01.130Z,3.63
2023-03-12T01:00:28.159Z,4.13
2023-03-12T01:02:55.058Z,2.50
2023-03-12T01:05:21.801Z,1.40
2023-03-12T01:07:48.591Z,1.20
2023-03-12T01:10:17.185Z,1.45
2023-03-12T01:12:45.777Z,0.93
2023-03-12T01:15:17.629Z,1.10
2023-03-12T01:17:44.369Z,0.90
2023-03-12T01:20:11.329Z,0.65
2023-03-12T01:22:38.253Z,0.70
2023-03-12T01:25:05.263Z,1.20
2023-03-12T01:27:32.128Z,0.80
2023-03-12T01:29:59.092Z,0.63
2023-03-12T01:32:26.033Z,0.98
2023-03-12T01:34:52.743Z,0.90
2023-03-12T01:37:19.755Z,0.73
2023-03-12T01:39:46.534Z,1.00
2023-03-12T01:42:13.343Z,1.20
2023-03-12T01:45:00.432Z,1.30
2023-03-12T01:47:32.991Z,0.80
2023-03-12T01:50:04.531Z,0.90
2023-03-12T01:52:36.316Z,1.00
2023-03-12T01:55:09.498Z,0.90
2023-03-12T01:57:48.509Z,1.35
2023-03-12T02:00:20.095Z,1.05
2023-03-12T02:02:49.471Z,0.85
2023-03-12T02:05:27.258Z,0.75
2023-03-12T02:07:54.138Z,0.50
2023-03-12T02:10:21.958Z,0.80
2023-03-12T02:12:48.706Z,0.68
2023-03-12T02:15:15.737Z,0.88
2023-03-12T02:17:42.818Z,1.00
2023-03-12T02:20:47.191Z,0.68
2023-03-12T02:23:26.515Z,0.70
2023-03-12T02:25:55.830Z,0.70
2023-03-12T02:28:25.644Z,0.80
2023-03-12T02:30:57.118Z,0.70
2023-03-12T02:33:23.985Z,1.05
2023-03-12T02:35:52.250Z,1.13
2023-03-12T02:38:36.363Z,0.70
2023-03-12T02:41:25.439Z,0.75
2023-03-12T02:43:57.225Z,0.80
2023-03-12T02:46:24.009Z,0.60
2023-03-12T02:48:51.491Z,0.45
2023-03-12T02:51:18.318Z,0.80
2023-03-12T02:53:45.266Z,0.52
2023-03-12T02:56:12.189Z,0.70
2023-03-12T02:58:39.342Z,0.50
2023-03-12T03:01:06.230Z,0.98
2023-03-12T03:03:32.927Z,0.50
2023-03-12T03:05:59.674Z,0.63
2023-03-12T03:08:26.345Z,0.95
2023-03-12T03:10:53.368Z,0.60
2023-03-12T03:13:20.062Z,0.65
2023-03-12T03:15:46.883Z,0.80
2023-03-12T03:18:13.762Z,0.90
2023-03-12T03:20:40.568Z,0.60
2023-03-12T03:23:07.127Z,0.57
2023-03-12T03:25:34.024Z,0.70
2023-03-12T03:28:00.908Z,0.55
2023-03-12T03:30:27.747Z,0.80
2023-03-12T03:32:54.494Z,0.75
2023-03-12T03:35:22.616Z,1.20
2023-03-12T03:37:49.473Z,0.95
2023-03-12T03:40:16.656Z,1.08
2023-03-12T03:42:43.435Z,1.00
2023-03-12T03:45:10.879Z,0.98
2023-03-12T03:47:39.388Z,0.93
2023-03-12T03:50:09.832Z,0.80
2023-03-12T03:52:36.754Z,0.73
2023-03-12T03:55:03.709Z,0.75
2023-03-12T03:57:31.735Z,1.00
2023-03-12T04:00:00.309Z,0.73
2023-03-12T04:02:28.999Z,0.75
2023-03-12T04:04:59.772Z,0.85
2023-03-12T04:07:30.224Z,1.20
2023-03-12T04:09:58.187Z,1.38
2023-03-12T04:12:26.503Z,1.40
2023-03-12T04:14:55.859Z,1.75
2023-03-12T04:17:22.874Z,1.30
2023-03-12T04:19:49.742Z,2.65
2023-03-12T04:22:17.876Z,1.88
2023-03-12T04:24:45.485Z,1.55
2023-03-12T04:27:12.847Z,1.50
2023-03-12T04:29:40.876Z,1.70
2023-03-12T04:32:07.915Z,1.40
2023-03-12T04:34:35.678Z,1.70
2023-03-12T04:37:05.341Z,2.22
2023-03-12T04:39:32.005Z,2.13
2023-03-12T04:41:59.091Z,2.20
2023-03-12T04:44:27.786Z,2.58
2023-03-12T04:46:54.783Z,2.80
2023-03-12T04:49:24.474Z,2.78
2023-03-12T04:51:51.488Z,2.63
2023-03-12T04:54:21.045Z,3.47
2023-03-12T04:56:48.890Z,3.38
2023-03-12T04:59:16.231Z,2.70
2023-03-12T05:01:44.649Z,2.90
2023-03-12T05:04:17.872Z,2.80
2023-03-12T05:06:44.700Z,3.40
2023-03-12T05:09:11.373Z,3.10
2023-03-12T05:11:40.383Z,2.65
2023-03-12T05:14:11.666Z,2.75
2023-03-12T05:16:39.117Z,2.50
2023-03-12T05:19:06.405Z,2.45
2023-03-12T05:21:33.588Z,2.75
2023-03-12T05:24:00.600Z,2.80
2023-03-12T05:26:33.818Z,2.60
2023-03-12T05:29:09.228Z,2.83
2023-03-12T05:31:36.639Z,2.25
2023-03-12T05:34:05.369Z,1.95
2023-03-12T05:36:35.318Z,2.72
2023-03-12T05:39:02.178Z,2.30
2023-03-12T05:41:31.927Z,2.60
2023-03-12T05:44:05.257Z,3.25
2023-03-12T05:46:32.071Z,3.13
2023-03-12T05:48:59.821Z,2.38
2023-03-12T05:51:26.797Z,2.80
2023-03-12T05:53:53.538Z,2.38
2023-03-12T05:56:20.226Z,3.15
2023-03-12T05:58:49.840Z,2.67
2023-03-12T06:01:21.591Z,2.60
2023-03-12T06:03:48.646Z,2.38
2023-03-12T06:06:15.958Z,3.28
2023-03-12T06:08:43.338Z,3.53
2023-03-12T06:11:12.412Z,2.65
2023-03-12T06:13:40.142Z,2.53
2023-03-12T06:16:17.191Z,2.85
2023-03-12T06:18:44.020Z,3.65
2023-03-12T06:21:19.993Z,3.58
2023-03-12T06:23:48.695Z,3.00
2023-03-12T06:26:23.587Z,3.35
2023-03-12T06:28:51.530Z,2.97
2023-03-12T06:31:19.116Z,3.50
2023-03-12T06:33:45.934Z,4.10
2023-03-12T06:36:13.146Z,3.83
2023-03-12T06:38:40.639Z,3.60
2023-03-12T06:41:10.794Z,3.72
2023-03-12T06:43:38.623Z,4.25
2023-03-12T06:46:07.313Z,4.32
2023-03-12T06:48:36.758Z,3.80
2023-03-12T06:51:04.851Z,4.07
2023-03-12T06:53:32.270Z,4.43
2023-03-12T06:55:59.430Z,4.93
2023-03-12T06:58:26.142Z,5.28
2023-03-12T07:00:54.507Z,4.15
2023-03-12T07:03:21.695Z,4.43
2023-03-12T07:05:50.361Z,4.20
2023-03-12T07:08:18.682Z,4.22
2023-03-12T07:10:46.354Z,4.35
2023-03-12T07:13:13.547Z,3.67
2023-03-12T07:15:40.588Z,4.50
2023-03-12T07:18:09.300Z,4.30
2023-03-12T07:20:41.055Z,3.88
2023-03-12T07:23:08.048Z,3.70
2023-03-12T07:25:42.765Z,4.40
2023-03-12T07:28:10.820Z,4.07
2023-03-12T07:30:37.986Z,3.80
2023-03-12T07:33:07.205Z,4.45
2023-03-12T07:35:34.081Z,4.20
2023-03-12T07:38:01.952Z,3.90
2023-03-12T07:40:28.836Z,3.20
2023-03-12T07:42:56.086Z,2.85
2023-03-12T07:45:23.317Z,4.22
2023-03-12T07:47:50.806Z,3.30
2023-03-12T07:50:18.825Z,3.97
2023-03-12T07:52:46.759Z,4.15
2023-03-12T07:55:13.893Z,3.97
2023-03-12T07:57:40.866Z,3.03
2023-03-12T08:00:10.451Z,2.88
2023-03-12T08:02:40.449Z,3.38
2023-03-12T08:05:07.886Z,3.22
2023-03-12T08:07:35.947Z,3.78
2023-03-12T08:10:05.977Z,3.78
2023-03-12T08:12:32.828Z,3.50
2023-03-12T08:14:59.676Z,3.00
2023-03-12T08:17:26.459Z,3.20
2023-03-12T08:19:53.210Z,3.75
2023-03-12T08:22:19.847Z,3.08
2023-03-12T08:24:46.599Z,2.80
2023-03-12T08:27:13.619Z,3.15
2023-03-12T08:29:40.811Z,3.25
2023-03-12T08:32:10.817Z,2.80
2023-03-12T08:34:37.686Z,3.28
2023-03-12T08:37:04.439Z,3.00
2023-03-12T08:39:31.583Z,3.17
2023-03-12T08:41:58.711Z,2.92
2023-03-12T08:44:25.939Z,3.30
2023-03-12T08:46:53.054Z,2.72
2023-03-12T08:49:21.052Z,2.97
2023-03-12T08:51:47.990Z,4.20
2023-03-12T08:54:14.965Z,3.30
2023-03-12T08:56:46.575Z,2.78
2023-03-12T08:59:13.750Z,3.00
2023-03-12T09:01:43.546Z,2.70
2023-03-12T09:04:10.952Z,4.03
2023-03-12T09:06:38.484Z,3.22
2023-03-12T09:09:05.857Z,2.92
2023-03-12T09:11:33.937Z,2.70
2023-03-12T09:14:36.681Z,2.67
2023-03-12T09:16:49.287Z,2.60
2023-03-12T09:19:15.990Z,2.25
2023-03-12T09:21:42.715Z,2.40
2023-03-12T09:24:11.039Z,2.88
2023-03-12T09:26:37.762Z,3.13
2023-03-12T09:29:04.349Z,2.33
2023-03-12T09:31:31.603Z,2.40
2023-03-12T09:33:58.307Z,2.83
2023-03-12T09:36:24.995Z,3.10
2023-03-12T09:38:51.665Z,2.30
2023-03-12T09:41:23.000Z,2.30
2023-03-12T09:43:52.257Z,2.70
2023-03-12T09:46:35.043Z,2.60
2023-03-12T09:49:06.277Z,2.65
2023-03-12T09:51:44.174Z,2.88
2023-03-12T09:54:24.960Z,2.75
2023-03-12T09:56:55.037Z,2.17
2023-03-12T09:59:22.428Z,3.08
2023-03-12T10:01:57.419Z,3.00
2023-03-12T10:04:59.336Z,2.40
2023-03-12T10:07:42.916Z,2.83
2023-03-12T10:10:27.496Z,2.80
2023-03-12T10:13:02.714Z,2.78
2023-03-12T10:15:57.647Z,2.60
2023-03-12T10:18:35.734Z,2.55
2023-03-12T10:21:02.487Z,2.38
2023-03-12T10:24:04.292Z,2.65
2023-03-12T10:26:37.054Z,2.60
2023-03-12T10:29:14.002Z,2.30
2023-03-12T10:32:07.038Z,3.05
2023-03-12T10:34:42.580Z,2.08
2023-03-12T10:39:50.064Z,2.45
2023-03-12T10:42:26.066Z,2.15
2023-03-12T10:44:57.785Z,2.13
2023-03-12T10:47:42.498Z,2.65
2023-03-12T10:50:18.518Z,2.35
2023-03-12T10:52:47.466Z,2.30
2023-03-12T10:55:23.284Z,2.60
2023-03-12T10:57:50.939Z,2.95
2023-03-12T11:00:22.045Z,2.53
2023-03-12T11:02:58.844Z,2.35
2023-03-12T11:05:31.243Z,2.42
2023-03-12T11:08:03.880Z,2.38
2023-03-12T11:10:46.630Z,2.13
2023-03-12T11:13:30.724Z,3.20
2023-03-12T11:16:00.620Z,2.38
2023-03-12T11:18:27.339Z,2.30
2023-03-12T11:21:08.968Z,2.05
2023-03-12T11:23:38.837Z,2.92
2023-03-12T11:26:20.928Z,2.30
2023-03-12T11:28:55.323Z,2.28
2023-03-12T11:31:24.683Z,2.38
2023-03-12T11:33:54.724Z,2.53
2023-03-12T11:36:43.026Z,2.92
2023-03-12T11:39:25.746Z,2.03
2023-03-12T11:42:16.401Z,2.13
2023-03-12T11:44:58.626Z,2.70
2023-03-12T11:48:10.589Z,2.20
2023-03-12T11:51:23.153Z,2.53
2023-03-12T11:54:38.917Z,2.35
2023-03-12T11:57:42.252Z,2.13
2023-03-12T12:00:17.324Z,2.30
2023-03-12T12:03:09.872Z,2.72
2023-03-12T12:05:49.059Z,2.20
2023-03-12T12:08:36.937Z,2.30
2023-03-12T12:11:26.489Z,2.05
2023-03-12T12:14:20.911Z,2.05
2023-03-12T12:17:21.844Z,1.92
2023-03-12T12:20:09.228Z,2.22
2023-03-12T12:22:48.306Z,1.73
2023-03-12T12:25:18.012Z,2.00
2023-03-12T12:27:53.301Z,2.30
2023-03-12T12:30:28.176Z,2.40
2023-03-12T12:33:15.547Z,2.13
2023-03-12T12:35:43.255Z,1.95
2023-03-12T12:38:21.766Z,2.00
2023-03-12T12:40:54.468Z,2.95
2023-03-12T12:43:30.098Z,2.00
2023-03-12T12:46:02.102Z,2.30
2023-03-12T12:48:35.596Z,2.30
2023-03-12T12:51:06.422Z,2.33
2023-03-12T12:53:38.212Z,2.40
2023-03-12T12:56:33.017Z,2.00
2023-03-12T12:59:03.583Z,2.03
2023-03-12T13:01:32.800Z,2.22
2023-03-12T13:04:13.620Z,2.45
2023-03-12T13:06:57.254Z,2.38
2023-03-12T13:09:40.238Z,2.28
2023-03-12T13:12:28.418Z,2.35
2023-03-12T13:14:56.973Z,2.30
2023-03-12T13:17:28.261Z,2.28
2023-03-12T13:20:17.845Z,2.13
2023-03-12T13:23:03.748Z,1.95
2023-03-12T13:28:26.302Z,2.55
2023-03-12T13:30:54.288Z,2.50
2023-03-12T13:33:41.434Z,2.35
2023-03-12T13:36:24.021Z,2.10
2023-03-12T13:39:01.043Z,2.95
2023-03-12T13:41:36.099Z,2.60
2023-03-12T13:44:27.416Z,2.20
2023-03-12T13:47:12.086Z,2.45
2023-03-12T13:49:59.239Z,2.53
2023-03-12T13:52:32.527Z,2.38
2023-03-12T13:55:03.316Z,2.53
2023-03-12T13:57:54.726Z,2.30
2023-03-12T14:00:29.187Z,3.25
2023-03-12T14:03:20.131Z,2.17
2023-03-12T14:06:05.176Z,2.88
2023-03-12T14:08:50.768Z,2.00
2023-03-12T14:11:37.658Z,2.47
2023-03-12T14:14:24.478Z,3.90
2023-03-12T14:16:54.818Z,2.92
2023-03-12T14:19:27.388Z,2.70
2023-03-12T14:21:55.980Z,2.65
2023-03-12T14:24:29.991Z,2.55
2023-03-12T14:26:57.942Z,2.40
2023-03-12T14:29:45.476Z,2.50
2023-03-12T14:32:33.626Z,2.90
2023-03-12T14:35:33.349Z,2.85
2023-03-12T14:38:03.485Z,2.67
2023-03-12T14:40:48.032Z,2.83
2023-03-12T14:43:20.645Z,2.10
2023-03-12T14:45:51.974Z,2.55
2023-03-12T14:48:24.106Z,2.40
2023-03-12T14:50:50.946Z,2.58
2023-03-12T14:53:38.003Z,2.50
2023-03-12T14:56:14.902Z,2.50
2023-03-12T14:58:47.421Z,2.67
2023-03-12T15:01:22.630Z,2.70
2023-03-12T15:03:53.554Z,3.65
2023-03-12T15:06:29.648Z,3.15
2023-03-12T15:08:57.615Z,4.60
2023-03-12T15:11:27.562Z,4.40
2023-03-12T15:13:56.302Z,4.38
2023-03-12T15:16:23.764Z,3.50
2023-03-12T15:18:51.051Z,4.00
2023-03-12T15:21:17.957Z,5.90
2023-03-12T15:23:46.997Z,5.25
2023-03-12T15:26:19.654Z,5.20
2023-03-12T15:29:15.222Z,4.13
2023-03-12T15:31:43.126Z,3.63
2023-03-12T15:34:12.120Z,4.15
2023-03-12T15:36:48.245Z,5.80
2023-03-12T15:39:47.492Z,3.53
2023-03-12T15:42:19.827Z,7.40
2023-03-12T15:44:49.690Z,4.20
2023-03-12T15:47:23.103Z,3.33
2023-03-12T15:50:09.866Z,2.83
2023-03-12T15:52:36.981Z,4.25
2023-03-12T15:55:09.862Z,3.28
2023-03-12T15:57:56.584Z,4.93
2023-03-12T16:00:25.780Z,4.25
2023-03-12T16:02:56.621Z,4.05
2023-03-12T16:05:28.327Z,5.18
2023-03-12T16:07:55.101Z,4.00
2023-03-12T16:10:24.351Z,4.97
2023-03-12T16:13:01.286Z,4.57
2023-03-12T16:15:37.055Z,3.95
2023-03-12T16:18:04.614Z,4.70
2023-03-12T16:20:31.533Z,5.47
2023-03-12T16:22:58.294Z,5.50
2023-03-12T16:25:25.834Z,4.60
2023-03-12T16:27:58.116Z,5.05
2023-03-12T16:30:33.944Z,5.20
2023-03-12T16:33:02.284Z,4.45
2023-03-12T16:35:31.260Z,4.10
2023-03-12T16:38:00.911Z,5.40
2023-03-12T16:40:33.787Z,4.10
2023-03-12T16:43:03.862Z,4.65
2023-03-12T16:45:33.810Z,5.10
2023-03-12T16:48:03.684Z,4.40
2023-03-12T16:50:30.858Z,4.50
2023-03-12T16:52:58.030Z,6.05
2023-03-12T16:55:30.435Z,4.57
2023-03-12T16:58:02.120Z,3.90
2023-03-12T17:00:33.174Z,3.53
2023-03-12T17:03:00.831Z,4.15
2023-03-12T17:05:29.436Z,4.50
2023-03-12T17:07:57.219Z,4.50
2023-03-12T17:10:24.847Z,4.40
2023-03-12T17:12:52.778Z,3.90
2023-03-12T17:15:30.704Z,3.42
2023-03-12T17:17:59.383Z,3.88
2023-03-12T17:20:26.104Z,3.90
2023-03-12T17:22:53.194Z,3.72
2023-03-12T17:25:28.338Z,4.50
2023-03-12T17:27:58.419Z,4.35
2023-03-12T17:30:27.222Z,4.28
2023-03-12T17:33:00.005Z,4.70
2023-03-12T17:35:26.895Z,4.47
2023-03-12T17:37:53.491Z,4.32
2023-03-12T17:40:20.280Z,6.57
2023-03-12T17:42:46.843Z,5.40
2023-03-12T17:45:13.580Z,4.18
2023-03-12T17:47:40.181Z,3.97
2023-03-12T17:50:07.844Z,4.55
2023-03-12T17:52:34.747Z,4.30
2023-03-12T17:55:01.618Z,5.00
2023-03-12T17:57:28.263Z,5.95
2023-03-12T17:59:54.957Z,5.93
2023-03-12T18:02:22.391Z,5.80
2023-03-12T18:04:49.329Z,5.10
2023-03-12T18:07:15.993Z,5.13
2023-03-12T18:09:42.752Z,3.53
2023-03-12T18:12:11.126Z,4.45
2023-03-12T18:14:38.206Z,3.20
2023-03-12T18:17:05.007Z,2.78
2023-03-12T18:19:31.892Z,2.88
2023-03-12T18:21:58.588Z,2.42
2023-03-12T18:24:25.399Z,2.53
2023-03-12T18:26:53.400Z,2.72
2023-03-12T18:29:20.234Z,2.78
2023-03-12T18:31:46.956Z,2.35
2023-03-12T18:34:13.686Z,3.22
2023-03-12T18:36:40.251Z,2.55
2023-03-12T18:39:06.914Z,2.85
2023-03-12T18:41:33.643Z,2.88
2023-03-12T18:44:00.630Z,2.88
2023-03-12T18:46:28.242Z,3.70
2023-03-12T18:48:54.963Z,3.63
2023-03-12T18:51:21.617Z,2.83
2023-03-12T18:53:48.509Z,2.72
2023-03-12T18:56:15.124Z,3.28
2023-03-12T18:58:41.701Z,4.40
2023-03-12T19:01:08.316Z,3.10
2023-03-12T19:03:36.484Z,4.00
2023-03-12T19:06:08.838Z,4.78
2023-03-12T19:08:37.363Z,5.22
2023-03-12T19:11:05.821Z,4.95
2023-03-12T19:13:32.815Z,5.03
2023-03-12T19:16:01.502Z,4.53
2023-03-12T19:18:28.904Z,3.95
2023-03-12T19:20:55.581Z,4.93
2023-03-12T19:23:23.291Z,4.38
2023-03-12T19:25:50.109Z,5.07
2023-03-12T19:28:16.950Z,4.82
2023-03-12T19:30:43.617Z,5.20
2023-03-12T19:33:10.490Z,4.50
2023-03-12T19:35:41.686Z,4.80
2023-03-12T19:38:09.324Z,4.72
2023-03-12T19:40:35.956Z,4.95
2023-03-12T19:43:03.100Z,4.50
2023-03-12T19:45:29.785Z,5.03
2023-03-12T19:47:56.807Z,3.90
2023-03-12T19:50:24.215Z,4.25
2023-03-12T19:52:51.049Z,4.30
2023-03-12T19:55:17.869Z,3.40
2023-03-12T19:57:44.744Z,3.10
2023-03-12T20:00:12.287Z,3.92
2023-03-12T20:02:39.588Z,3.58
2023-03-12T20:05:08.253Z,3.90
2023-03-12T20:07:36.018Z,3.65
2023-03-12T20:10:04.348Z,4.18
2023-03-12T20:12:32.269Z,4.22
2023-03-12T20:14:59.022Z,3.50
2023-03-12T20:17:25.878Z,4.30
2023-03-12T20:19:52.804Z,3.30
2023-03-12T20:22:19.483Z,3.25
2023-03-12T20:24:46.116Z,4.00
2023-03-12T20:27:12.879Z,3.30
2023-03-12T20:29:39.657Z,2.65
2023-03-12T20:32:06.360Z,3.85
2023-03-12T20:34:33.056Z,3.08
2023-03-12T20:36:59.719Z,3.13
2023-03-12T20:39:26.402Z,3.33
2023-03-12T20:41:53.134Z,2.78
2023-03-12T20:44:19.878Z,3.00
2023-03-12T20:46:46.647Z,3.70
2023-03-12T20:49:13.657Z,2.80
2023-03-12T20:51:44.592Z,2.60
2023-03-12T20:54:12.275Z,4.10
2023-03-12T20:56:43.410Z,3.08
2023-03-12T20:59:10.923Z,3.78
2023-03-12T21:01:37.920Z,6.30
2023-03-12T21:04:04.899Z,5.43
2023-03-12T21:06:31.768Z,4.03
2023-03-12T21:08:58.949Z,4.20
2023-03-12T21:11:29.268Z,4.00
2023-03-12T21:13:56.143Z,3.55
2023-03-12T21:16:23.032Z,4.57
2023-03-12T21:18:50.035Z,5.03
2023-03-12T21:21:16.661Z,5.10
2023-03-12T21:23:43.392Z,5.47
2023-03-12T21:26:11.536Z,4.47
2023-03-12T21:28:38.242Z,4.95
2023-03-12T21:31:11.342Z,4.75
2023-03-12T21:33:38.101Z,5.63
2023-03-12T21:36:10.372Z,5.63
2023-03-12T21:38:38.473Z,7.15
2023-03-12T21:41:12.525Z,4.45
2023-03-12T21:43:39.929Z,5.53
2023-03-12T21:46:08.985Z,5.47
2023-03-12T21:48:36.323Z,5.70
2023-03-12T21:51:11.506Z,5.95
2023-03-12T21:53:38.267Z,5.72
2023-03-12T21:56:07.342Z,4.90
2023-03-12T21:58:35.707Z,4.85
2023-03-12T22:01:03.636Z,5.25
2023-03-12T22:03:30.374Z,5.30
2023-03-12T22:05:57.619Z,4.25
2023-03-12T22:08:24.734Z,5.32
2023-03-12T22:10:51.616Z,5.40
2023-03-12T22:13:18.412Z,4.90
2023-03-12T22:15:54.461Z,5.50
2023-03-12T22:18:22.240Z,5.53
2023-03-12T22:20:56.998Z,5.47
2023-03-12T22:23:24.989Z,4.63
2023-03-12T22:25:51.717Z,4.88
2023-03-12T22:28:18.794Z,4.40
2023-03-12T22:30:45.848Z,4.80
2023-03-12T22:33:12.963Z,4.18
2023-03-12T22:35:46.614Z,4.90
2023-03-12T22:38:13.401Z,5.82
2023-03-12T22:40:40.663Z,5.68
2023-03-12T22:43:07.876Z,4.72
2023-03-12T22:45:34.987Z,4.50
2023-03-12T22:48:02.006Z,4.43
2023-03-12T22:50:29.181Z,4.55
2023-03-12T22:52:56.063Z,5.35
2023-03-12T22:55:22.809Z,4.63
2023-03-12T22:57:49.533Z,4.25
2023-03-12T23:00:19.336Z,3.85
2023-03-12T23:02:46.031Z,5.20
2023-03-12T23:05:12.645Z,5.30
2023-03-12T23:07:39.274Z,4.72
2023-03-12T23:10:07.044Z,5.88
2023-03-12T23:12:33.906Z,5.00
2023-03-12T23:15:00.607Z,5.38
2023-03-12T23:17:27.335Z,5.50
2023-03-12T23:19:53.978Z,4.85
2023-03-12T23:22:20.881Z,5.45
2023-03-12T23:24:47.490Z,5.18
2023-03-12T23:27:14.204Z,5.50
2023-03-12T23:29:40.829Z,5.35
2023-03-12T23:32:07.751Z,5.05
2023-03-12T23:34:34.984Z,5.95
2023-03-12T23:37:01.855Z,5.93
2023-03-12T23:39:30.500Z,6.95
2023-03-12T23:41:57.795Z,5.90
2023-03-12T23:44:24.920Z,5.18
2023-03-12T23:46:51.659Z,4.53
2023-03-12T23:49:18.415Z,4.45
2023-03-12T23:51:45.186Z,4.60
2023-03-12T23:54:11.823Z,5.38
2023-03-12T23:56:40.364Z,3.58
2023-03-12T23:59:09.156Z,4.45
